»·PEaware :: N50212 KSNA-KMYF

N50212 :: KSNA-KMYF

FLIGHT INFORMATION

Flight Status: Arrived
Operator: Privately registered:
United States
More flights under this callsign
Pilot: Brad H. (9994)
Aircraft: PIPER PA-34 SENECA
(PA34)
More flights by this aircraft type
Origin: KSNA John Wayne-Orange Co
United States
Destination: KMYF Montgomery
United States
More flights between these airports :: More routes between these airports
Route: V23 MZB
File this flight plan on PilotEdge
Remarks:
Altitude:
(Current/Filed)
5,000ft
Speed:
(Current/Filed)
140kts
Departed: 11-Jan-18 08:12 AM
Arrived: 11-Jan-18 08:52 AM
Distance/Time
Traveled:
63nm/0:39
Distance/Time
To Go:
Arrived

Flight Plot

Page will automatically refresh every two minutes.


Map Options




Map Legend


Flown Route
Filed Route
Departure Airport
Arrival Airport
Navaid (VOR, NDB)
Fix

Horizontal Profiles

Position Reports

Time Latitude Longitude Heading Altitude Ground
Speed
11-Jan-18 07:54 33.672465 -117.866882 210 47ft 0kts
11-Jan-18 07:55 33.672465 -117.866882 210 47ft 0kts
11-Jan-18 07:56 33.672465 -117.866882 210 47ft 0kts
11-Jan-18 07:57 33.672465 -117.866882 210 47ft 0kts
11-Jan-18 07:58 33.672465 -117.866882 210 47ft 0kts
11-Jan-18 07:59 33.672465 -117.866882 210 47ft 0kts
11-Jan-18 08:00 33.672465 -117.866882 210 47ft 0kts
11-Jan-18 08:01 33.672465 -117.866882 210 47ft 0kts
11-Jan-18 08:02 33.672465 -117.866882 210 47ft 0kts
11-Jan-18 08:03 33.672465 -117.866882 210 47ft 0kts
11-Jan-18 08:04 33.672465 -117.866882 210 47ft 0kts
11-Jan-18 08:05 33.672465 -117.866882 210 47ft 0kts
11-Jan-18 08:06 33.672465 -117.866882 210 47ft 0kts
11-Jan-18 08:07 33.672465 -117.866882 210 47ft 0kts
11-Jan-18 08:08 33.672465 -117.866882 210 47ft 0kts
11-Jan-18 08:09 33.672465 -117.866882 210 47ft 0kts
11-Jan-18 08:10 33.672465 -117.866882 210 47ft 0kts
11-Jan-18 08:11 33.672465 -117.866882 210 47ft 0kts
11-Jan-18 08:12 33.672465 -117.866882 210 47ft 0kts
11-Jan-18 08:13 33.672395 -117.867234 309 48ft 1kts
11-Jan-18 08:14 33.672569 -117.867280 1 48ft 0kts
11-Jan-18 08:15 33.676209 -117.865745 28 44ft 18kts
11-Jan-18 08:16 33.679926 -117.863604 311 39ft 0kts
11-Jan-18 08:17 33.679930 -117.863609 311 39ft 0kts
11-Jan-18 08:18 33.678553 -117.865218 206 42ft 59kts
11-Jan-18 08:19 33.652941 -117.876333 186 972ft 109kts
11-Jan-18 08:20 33.624753 -117.880277 182 1911ft 94kts
11-Jan-18 08:21 33.599899 -117.883569 190 2709ft 91kts
11-Jan-18 08:22 33.574721 -117.883537 118 3452ft 101kts
11-Jan-18 08:23 33.567703 -117.851235 104 4199ft 107kts
11-Jan-18 08:24 33.558761 -117.814784 102 4826ft 120kts
11-Jan-18 08:25 33.542965 -117.774374 128 4989ft 152kts
11-Jan-18 08:26 33.513037 -117.737437 132 4981ft 155kts
11-Jan-18 08:27 33.482202 -117.701038 133 4976ft 156kts
11-Jan-18 08:28 33.451258 -117.664647 133 4969ft 156kts
11-Jan-18 08:29 33.420591 -117.628631 133 4961ft 155kts
11-Jan-18 08:30 33.389884 -117.592643 133 4957ft 154kts
11-Jan-18 08:31 33.359055 -117.556598 133 4957ft 154kts
11-Jan-18 08:32 33.328290 -117.520678 133 4957ft 154kts
11-Jan-18 08:33 33.297537 -117.484810 133 4957ft 154kts
11-Jan-18 08:34 33.266740 -117.448928 133 4957ft 154kts
11-Jan-18 08:35 33.234535 -117.415365 159 4966ft 155kts
11-Jan-18 08:36 33.193625 -117.398131 159 4951ft 156kts
11-Jan-18 08:37 33.152527 -117.380824 159 4946ft 157kts
11-Jan-18 08:38 33.111324 -117.363489 159 4940ft 157kts
11-Jan-18 08:39 33.070337 -117.346261 159 4939ft 156kts
11-Jan-18 08:40 33.029466 -117.329118 159 4940ft 155kts
11-Jan-18 08:41 32.988902 -117.312138 159 4940ft 154kts
11-Jan-18 08:42 32.948386 -117.295202 159 4940ft 154kts
11-Jan-18 08:43 32.916200 -117.260982 132 4474ft 155kts
11-Jan-18 08:44 32.887195 -117.223468 131 4012ft 151kts
11-Jan-18 08:45 32.860128 -117.188697 131 3947ft 136kts
11-Jan-18 08:46 32.841967 -117.151651 111 3970ft 127kts
11-Jan-18 08:47 32.828321 -117.112820 111 3980ft 127kts
11-Jan-18 08:48 32.817919 -117.072371 101 3944ft 128kts
11-Jan-18 08:49 32.809852 -117.028934 101 3389ft 136kts
11-Jan-18 08:50 32.801984 -116.985098 100 2882ft 130kts
11-Jan-18 08:51 32.788014 -116.951535 150 2820ft 118kts
11-Jan-18 08:52 32.757708 -116.947492 230 2844ft 127kts
11-Jan-18 08:53 32.757782 -116.990069 292 2577ft 155kts
11-Jan-18 08:54 32.776052 -117.038213 295 2527ft 159kts
11-Jan-18 08:55 32.793757 -117.082937 294 1982ft 127kts
11-Jan-18 08:56 32.806228 -117.114572 293 952ft 100kts
11-Jan-18 08:57 32.816589 -117.140738 294 418ft 53kts
11-Jan-18 08:58 32.814968 -117.145911 157 411ft 17kts
11-Jan-18 08:59 32.813409 -117.145033 7 410ft 0kts

Navigation Log

Ident Type
1. KSNA Airport
2. MZB Navaid
3. KMYF Airport